createdAt,value
2023-06-29T00:01:58.925Z,99.90
2023-06-29T00:04:26.856Z,99.90
2023-06-29T00:06:57.690Z,99.90
2023-06-29T00:09:24.548Z,99.90
2023-06-29T00:11:51.419Z,99.90
2023-06-29T00:14:18.324Z,99.90
2023-06-29T00:16:45.300Z,99.90
2023-06-29T00:19:15.591Z,99.90
2023-06-29T00:21:42.535Z,99.90
2023-06-29T00:24:12.168Z,99.90
2023-06-29T00:26:39.576Z,99.90
2023-06-29T00:29:06.657Z,99.90
2023-06-29T00:31:33.580Z,99.90
2023-06-29T00:34:00.482Z,99.90
2023-06-29T00:36:27.349Z,99.90
2023-06-29T00:38:54.190Z,99.90
2023-06-29T00:41:21.032Z,99.90
2023-06-29T00:43:47.831Z,99.90
2023-06-29T00:46:21.101Z,99.90
2023-06-29T00:48:48.835Z,99.90
2023-06-29T00:51:17.108Z,99.90
2023-06-29T00:53:44.513Z,99.90
2023-06-29T00:56:11.569Z,99.90
2023-06-29T00:58:38.834Z,99.90
2023-06-29T01:01:05.783Z,99.90
2023-06-29T01:03:32.778Z,99.90
2023-06-29T01:06:05.468Z,99.90
2023-06-29T01:08:44.637Z,99.90
2023-06-29T01:11:13.693Z,99.90
2023-06-29T01:13:43.992Z,99.90
2023-06-29T01:16:12.788Z,99.90
2023-06-29T01:18:40.759Z,99.90
2023-06-29T01:21:08.573Z,99.90
2023-06-29T01:23:39.225Z,99.90
2023-06-29T01:26:06.702Z,99.90
2023-06-29T01:28:39.104Z,99.90
2023-06-29T01:31:06.583Z,99.90
2023-06-29T01:33:34.446Z,99.90
2023-06-29T01:36:08.370Z,99.90
2023-06-29T01:38:41.344Z,99.90
2023-06-29T01:41:08.908Z,99.90
2023-06-29T01:43:36.451Z,99.90
2023-06-29T01:46:05.328Z,99.90
2023-06-29T01:48:33.781Z,99.90
2023-06-29T01:51:00.915Z,99.90
2023-06-29T01:53:30.359Z,99.90
2023-06-29T01:55:58.588Z,99.90
2023-06-29T01:58:25.582Z,99.90
2023-06-29T02:00:52.415Z,99.90
2023-06-29T02:03:19.254Z,99.90
2023-06-29T02:05:46.274Z,99.90
2023-06-29T02:08:13.461Z,99.90
2023-06-29T02:10:40.296Z,99.90
2023-06-29T02:13:07.093Z,99.90
2023-06-29T02:15:33.933Z,99.90
2023-06-29T02:18:00.837Z,99.90
2023-06-29T02:20:27.637Z,99.90
2023-06-29T02:22:54.863Z,99.90
2023-06-29T02:25:21.828Z,99.90
2023-06-29T02:27:48.692Z,99.90
2023-06-29T02:30:15.633Z,99.90
2023-06-29T02:32:42.494Z,99.90
2023-06-29T02:35:09.794Z,99.90
2023-06-29T02:37:36.686Z,99.90
2023-06-29T02:40:03.916Z,99.90
2023-06-29T02:42:30.771Z,99.90
2023-06-29T02:44:57.614Z,99.90
2023-06-29T02:47:24.511Z,99.90
2023-06-29T02:49:51.391Z,99.90
2023-06-29T02:52:18.190Z,99.90
2023-06-29T02:54:44.979Z,99.90
2023-06-29T02:57:11.798Z,99.90
2023-06-29T02:59:39.308Z,99.90
2023-06-29T03:02:06.679Z,99.90
2023-06-29T03:04:33.477Z,99.90
2023-06-29T03:07:00.308Z,99.90
2023-06-29T03:09:27.203Z,99.90
2023-06-29T03:11:54.003Z,99.90
2023-06-29T03:14:22.867Z,99.90
2023-06-29T03:16:49.830Z,99.90
2023-06-29T03:19:16.688Z,99.90
2023-06-29T03:21:43.446Z,99.90
2023-06-29T03:24:10.320Z,99.90
2023-06-29T03:26:37.171Z,99.90
2023-06-29T03:29:03.972Z,99.90
2023-06-29T03:31:30.823Z,99.90
2023-06-29T03:33:59.888Z,99.90
2023-06-29T03:36:27.195Z,99.90
2023-06-29T03:38:54.021Z,99.90
2023-06-29T03:41:21.017Z,99.90
2023-06-29T03:43:47.837Z,99.90
2023-06-29T03:46:14.716Z,99.90
2023-06-29T03:48:41.510Z,99.90
2023-06-29T03:51:08.421Z,99.90
2023-06-29T03:53:35.225Z,99.90
2023-06-29T03:56:02.115Z,99.90
2023-06-29T03:58:28.924Z,99.90
2023-06-29T04:00:55.881Z,99.90
2023-06-29T04:03:22.751Z,99.90
2023-06-29T04:05:49.786Z,99.90
2023-06-29T04:08:16.586Z,99.90
2023-06-29T04:10:43.367Z,99.90
2023-06-29T04:13:10.259Z,99.90
2023-06-29T04:15:37.145Z,99.90
2023-06-29T04:18:04.135Z,99.90
2023-06-29T04:20:31.010Z,99.90
2023-06-29T04:22:57.853Z,99.90
2023-06-29T04:25:25.124Z,99.90
2023-06-29T04:27:52.016Z,99.90
2023-06-29T04:30:19.145Z,99.90
2023-06-29T04:32:50.457Z,99.90
2023-06-29T04:35:17.474Z,99.90
2023-06-29T04:37:44.277Z,99.90
2023-06-29T04:40:15.349Z,99.90
2023-06-29T04:42:46.285Z,99.90
2023-06-29T04:45:20.345Z,99.90
2023-06-29T04:47:50.762Z,99.90
2023-06-29T04:50:27.318Z,99.90
2023-06-29T04:52:57.328Z,99.90
2023-06-29T04:55:24.177Z,99.90
2023-06-29T04:57:51.270Z,99.90
2023-06-29T05:00:19.846Z,99.90
2023-06-29T05:02:46.868Z,99.90
2023-06-29T05:05:13.957Z,99.90
2023-06-29T05:07:42.597Z,99.90
2023-06-29T05:10:09.721Z,99.90
2023-06-29T05:12:36.530Z,99.90
2023-06-29T05:15:03.533Z,99.90
2023-06-29T05:17:31.074Z,99.90
2023-06-29T05:19:59.186Z,99.90
2023-06-29T05:22:25.967Z,99.90
2023-06-29T05:24:52.759Z,99.90
2023-06-29T05:27:19.555Z,99.90
2023-06-29T05:29:46.378Z,99.90
2023-06-29T05:32:13.555Z,99.90
2023-06-29T05:34:40.317Z,99.90
2023-06-29T05:37:07.194Z,99.90
2023-06-29T05:39:33.981Z,99.90
2023-06-29T05:42:00.866Z,99.90
2023-06-29T05:44:27.690Z,99.90
2023-06-29T05:46:54.494Z,99.90
2023-06-29T05:49:21.341Z,99.90
2023-06-29T05:51:48.106Z,99.90
2023-06-29T05:54:15.047Z,99.90
2023-06-29T05:56:41.871Z,99.90
2023-06-29T05:59:08.663Z,99.90
2023-06-29T06:01:36.326Z,99.90
2023-06-29T06:04:07.153Z,99.90
2023-06-29T06:06:34.123Z,99.90
2023-06-29T06:09:01.019Z,99.90
2023-06-29T06:11:27.860Z,99.90
2023-06-29T06:13:54.638Z,99.90
2023-06-29T06:16:22.057Z,99.90
2023-06-29T06:18:48.959Z,99.90
2023-06-29T06:21:15.763Z,99.90
2023-06-29T06:23:43.213Z,99.90
2023-06-29T06:26:09.933Z,99.90
2023-06-29T06:28:36.704Z,99.90
2023-06-29T06:31:03.475Z,99.90
2023-06-29T06:33:31.354Z,99.90
2023-06-29T06:36:00.424Z,99.90
2023-06-29T06:38:44.746Z,99.90
2023-06-29T06:41:14.406Z,99.90
2023-06-29T06:43:41.178Z,99.90
2023-06-29T06:46:07.920Z,99.90
2023-06-29T06:48:34.704Z,99.90
2023-06-29T06:51:01.502Z,99.90
2023-06-29T06:53:28.321Z,99.90
2023-06-29T06:55:55.576Z,99.90
2023-06-29T06:58:22.313Z,99.90
2023-06-29T07:00:49.159Z,99.90
2023-06-29T07:03:16.194Z,99.90
2023-06-29T07:05:43.324Z,99.90
2023-06-29T07:08:10.099Z,99.90
2023-06-29T07:10:36.969Z,99.90
2023-06-29T07:13:03.844Z,99.90
2023-06-29T07:15:30.699Z,99.90
2023-06-29T07:17:57.528Z,99.90
2023-06-29T07:25:24.209Z,99.90
2023-06-29T07:27:50.980Z,99.90
2023-06-29T07:30:17.837Z,99.90
2023-06-29T07:32:45.151Z,99.90
2023-06-29T07:35:13.054Z,99.90
2023-06-29T07:37:39.854Z,99.90
2023-06-29T07:40:07.620Z,99.90
2023-06-29T07:42:40.230Z,99.90
2023-06-29T07:45:08.167Z,99.90
2023-06-29T07:47:35.351Z,99.90
2023-06-29T07:50:02.380Z,99.90
2023-06-29T07:52:29.509Z,99.90
2023-06-29T07:54:56.304Z,99.90
2023-06-29T07:59:52.761Z,99.90
2023-06-29T08:02:19.587Z,99.90
2023-06-29T08:07:16.173Z,99.90
2023-06-29T08:09:43.016Z,99.90
2023-06-29T08:12:09.824Z,99.90
2023-06-29T08:14:38.776Z,99.90
2023-06-29T08:17:06.008Z,99.90
2023-06-29T08:19:33.505Z,99.90
2023-06-29T08:22:00.378Z,99.90
2023-06-29T08:24:27.128Z,99.90
2023-06-29T08:26:54.066Z,99.90
2023-06-29T08:29:21.158Z,99.90
2023-06-29T08:31:48.208Z,99.90
2023-06-29T08:34:15.215Z,99.90
2023-06-29T08:36:42.058Z,99.90
2023-06-29T08:39:09.829Z,99.90
2023-06-29T08:41:37.005Z,99.90
2023-06-29T08:44:05.543Z,99.90
2023-06-29T08:46:33.997Z,99.90
2023-06-29T08:49:01.757Z,99.90
2023-06-29T08:51:29.928Z,99.90
2023-06-29T08:53:57.614Z,99.90
2023-06-29T08:56:24.870Z,99.90
2023-06-29T08:58:52.960Z,99.90
2023-06-29T09:01:20.348Z,99.90
2023-06-29T09:03:48.880Z,99.90
2023-06-29T09:06:16.322Z,99.90
2023-06-29T09:08:43.305Z,99.90
2023-06-29T09:11:10.289Z,99.90
2023-06-29T09:13:37.786Z,99.90
2023-06-29T09:16:05.755Z,99.90
2023-06-29T09:18:33.505Z,99.90
2023-06-29T09:21:00.375Z,99.90
2023-06-29T09:23:29.828Z,99.90
2023-06-29T09:25:58.256Z,99.90
2023-06-29T09:28:26.601Z,99.90
2023-06-29T09:30:54.260Z,99.90
2023-06-29T09:33:22.500Z,99.90
2023-06-29T09:35:53.134Z,99.90
2023-06-29T09:38:21.009Z,99.90
2023-06-29T09:40:52.801Z,99.90
2023-06-29T09:43:30.954Z,99.90
2023-06-29T09:46:08.334Z,99.90
2023-06-29T09:51:26.011Z,99.90
2023-06-29T09:53:53.006Z,99.90
2023-06-29T09:56:21.259Z,99.90
2023-06-29T09:58:48.603Z,99.90
2023-06-29T10:01:17.015Z,99.90
2023-06-29T10:03:45.284Z,99.90
2023-06-29T10:06:16.810Z,99.90
2023-06-29T10:08:45.466Z,99.90
2023-06-29T10:11:12.651Z,99.90
2023-06-29T10:13:44.477Z,99.90
2023-06-29T10:16:13.515Z,99.90
2023-06-29T10:18:48.037Z,98.30
2023-06-29T10:21:15.306Z,99.40
2023-06-29T10:23:43.698Z,98.20
2023-06-29T10:26:12.167Z,98.00
2023-06-29T10:28:39.486Z,97.50
2023-06-29T10:31:06.442Z,98.10
2023-06-29T10:33:46.082Z,98.40
2023-06-29T10:36:14.961Z,97.50
2023-06-29T10:38:41.909Z,99.50
2023-06-29T10:41:25.777Z,98.50
2023-06-29T10:43:59.886Z,96.30
2023-06-29T10:46:45.054Z,95.60
2023-06-29T10:49:23.606Z,97.00
2023-06-29T10:51:52.505Z,96.10
2023-06-29T10:54:23.398Z,96.00
2023-06-29T10:57:08.216Z,96.20
2023-06-29T10:59:37.915Z,97.20
2023-06-29T11:02:05.198Z,97.90
2023-06-29T11:04:32.382Z,97.80
2023-06-29T11:07:08.084Z,98.00
2023-06-29T11:09:35.532Z,97.60
2023-06-29T11:12:02.794Z,97.90
2023-06-29T11:14:29.996Z,98.60
2023-06-29T11:16:58.029Z,98.00
2023-06-29T11:19:29.165Z,97.90
2023-06-29T11:21:56.315Z,98.20
2023-06-29T11:24:23.207Z,98.10
2023-06-29T11:26:50.120Z,98.20
2023-06-29T11:29:17.045Z,99.20
2023-06-29T11:31:43.916Z,99.90
2023-06-29T11:34:14.768Z,99.90
2023-06-29T11:36:41.585Z,98.50
2023-06-29T11:39:13.074Z,98.20
2023-06-29T11:41:41.878Z,98.50
2023-06-29T11:44:11.442Z,99.20
2023-06-29T11:46:46.664Z,99.80
2023-06-29T11:49:21.115Z,99.90
2023-06-29T11:51:50.855Z,99.70
2023-06-29T11:54:18.154Z,99.80
2023-06-29T11:56:45.050Z,99.80
2023-06-29T11:59:13.815Z,99.90
2023-06-29T12:01:40.969Z,99.90
2023-06-29T12:04:10.107Z,99.90
2023-06-29T12:06:37.755Z,99.90
2023-06-29T12:09:12.073Z,99.90
2023-06-29T12:11:40.559Z,99.90
2023-06-29T12:14:10.809Z,99.90
2023-06-29T12:19:14.365Z,99.90
2023-06-29T12:21:42.034Z,99.90
2023-06-29T12:24:09.264Z,99.90
2023-06-29T12:26:36.161Z,99.90
2023-06-29T12:29:02.970Z,99.90
2023-06-29T12:31:30.366Z,99.90
2023-06-29T12:33:58.314Z,99.90
2023-06-29T12:36:25.206Z,99.90
2023-06-29T12:38:52.456Z,99.90
2023-06-29T12:41:20.067Z,99.90
2023-06-29T12:43:48.447Z,99.90
2023-06-29T12:46:15.266Z,99.90
2023-06-29T12:48:42.159Z,99.90
2023-06-29T12:51:08.931Z,99.90
2023-06-29T12:53:35.777Z,99.90
2023-06-29T12:56:02.601Z,99.90
2023-06-29T12:58:29.593Z,99.90
2023-06-29T13:00:57.095Z,99.90
2023-06-29T13:03:24.100Z,99.90
2023-06-29T13:05:53.181Z,99.90
2023-06-29T13:08:20.064Z,99.90
2023-06-29T13:10:46.911Z,99.90
2023-06-29T13:13:13.768Z,99.90
2023-06-29T13:15:40.628Z,99.90
2023-06-29T13:18:07.461Z,99.90
2023-06-29T13:20:34.297Z,99.90
2023-06-29T13:23:01.619Z,99.90
2023-06-29T13:25:28.709Z,99.90
2023-06-29T13:27:55.620Z,99.90
2023-06-29T13:30:22.496Z,99.90
2023-06-29T13:32:49.615Z,99.90
2023-06-29T13:35:16.534Z,99.90
2023-06-29T13:37:43.321Z,99.90
2023-06-29T13:40:11.072Z,97.70
2023-06-29T13:42:37.895Z,96.70
2023-06-29T13:45:05.302Z,95.70
2023-06-29T13:47:32.150Z,96.90
2023-06-29T13:49:59.081Z,97.10
2023-06-29T13:52:25.939Z,98.00
2023-06-29T13:54:52.782Z,99.70
2023-06-29T13:57:19.565Z,99.00
2023-06-29T13:59:48.104Z,99.90
2023-06-29T14:02:15.002Z,99.90
2023-06-29T14:04:42.284Z,99.90
2023-06-29T14:07:09.165Z,99.90
2023-06-29T14:09:35.937Z,99.90
2023-06-29T14:12:02.828Z,99.90
2023-06-29T14:14:29.781Z,99.90
2023-06-29T14:16:56.605Z,99.90
2023-06-29T14:19:23.422Z,99.90
2023-06-29T14:21:50.253Z,99.90
2023-06-29T14:24:17.083Z,99.90
2023-06-29T14:26:43.865Z,99.90
2023-06-29T14:29:10.701Z,99.90
2023-06-29T14:31:37.520Z,99.90
2023-06-29T14:34:04.404Z,99.90
2023-06-29T14:36:31.316Z,99.90
2023-06-29T14:38:59.186Z,99.90
2023-06-29T14:41:26.018Z,99.90
2023-06-29T14:43:52.854Z,99.90
2023-06-29T14:46:19.682Z,99.90
2023-06-29T14:48:46.507Z,99.90
2023-06-29T14:51:13.340Z,99.90
2023-06-29T14:53:40.213Z,99.90
2023-06-29T14:56:09.636Z,99.90
2023-06-29T14:58:37.434Z,99.90
2023-06-29T15:01:04.666Z,99.90
2023-06-29T15:03:31.736Z,99.80
2023-06-29T15:05:58.693Z,99.30
2023-06-29T15:08:25.553Z,99.90
2023-06-29T15:10:52.467Z,99.90
2023-06-29T15:13:19.461Z,99.90
2023-06-29T15:15:46.476Z,99.90
2023-06-29T15:18:13.541Z,99.90
2023-06-29T15:20:40.558Z,99.90
2023-06-29T15:23:07.375Z,98.70
2023-06-29T15:25:34.236Z,99.00
2023-06-29T15:28:02.320Z,98.20
2023-06-29T15:30:29.158Z,97.50
2023-06-29T15:32:56.119Z,97.00
2023-06-29T15:35:23.907Z,95.70
2023-06-29T15:37:50.767Z,96.30
2023-06-29T15:40:18.003Z,97.30
2023-06-29T15:42:45.974Z,97.40
2023-06-29T15:45:13.228Z,98.00
2023-06-29T15:47:40.356Z,98.10
2023-06-29T15:50:08.223Z,98.00
2023-06-29T15:52:35.635Z,97.90
2023-06-29T15:55:02.478Z,98.40
2023-06-29T15:57:29.624Z,99.70
2023-06-29T15:59:56.397Z,99.90
2023-06-29T16:02:23.546Z,98.40
2023-06-29T16:04:50.498Z,97.70
2023-06-29T16:07:17.507Z,97.70
2023-06-29T16:09:44.302Z,98.80
2023-06-29T16:12:11.122Z,99.90
2023-06-29T16:14:37.959Z,99.90
2023-06-29T16:17:04.988Z,99.90
2023-06-29T16:19:31.834Z,99.90
2023-06-29T16:21:58.655Z,99.90
2023-06-29T16:24:25.456Z,99.90
2023-06-29T16:26:52.651Z,99.20
2023-06-29T16:29:19.555Z,99.60
2023-06-29T16:31:47.661Z,98.90
2023-06-29T16:34:15.047Z,99.20
2023-06-29T16:36:42.237Z,99.70
2023-06-29T16:39:09.122Z,99.20
2023-06-29T16:41:35.992Z,99.70
2023-06-29T16:44:02.838Z,99.30
2023-06-29T16:46:29.852Z,99.90
2023-06-29T16:49:01.141Z,99.90
2023-06-29T16:51:29.851Z,99.90
2023-06-29T16:53:58.222Z,99.90
2023-06-29T16:56:28.018Z,99.90
2023-06-29T16:58:55.312Z,99.90
2023-06-29T17:01:22.723Z,99.90
2023-06-29T17:03:49.661Z,99.90
2023-06-29T17:06:16.561Z,99.90
2023-06-29T17:08:44.891Z,99.90
2023-06-29T17:11:12.392Z,99.90
2023-06-29T17:13:39.179Z,99.90
2023-06-29T17:16:07.170Z,99.90
2023-06-29T17:18:35.644Z,99.90
2023-06-29T17:21:02.622Z,99.90
2023-06-29T17:23:29.437Z,99.90
2023-06-29T17:25:56.536Z,99.90
2023-06-29T17:28:23.384Z,99.90
2023-06-29T17:30:51.701Z,99.90
2023-06-29T17:33:18.965Z,99.90
2023-06-29T17:35:46.076Z,99.90
2023-06-29T17:38:13.118Z,99.90
2023-06-29T17:40:40.127Z,99.90
2023-06-29T17:43:06.998Z,99.90
2023-06-29T17:45:34.207Z,99.90
2023-06-29T17:48:01.161Z,99.90
2023-06-29T17:50:28.007Z,99.90
2023-06-29T17:52:54.775Z,99.90
2023-06-29T17:55:21.619Z,99.90
2023-06-29T17:57:48.464Z,99.90
2023-06-29T18:00:16.444Z,99.90
2023-06-29T18:02:43.597Z,99.90
2023-06-29T18:05:11.177Z,99.90
2023-06-29T18:07:38.905Z,99.90
2023-06-29T18:10:08.220Z,99.90
2023-06-29T18:12:37.145Z,99.90
2023-06-29T18:15:06.445Z,99.90
2023-06-29T18:17:34.326Z,99.90
2023-06-29T18:20:01.447Z,99.90
2023-06-29T18:22:28.292Z,99.90
2023-06-29T18:24:55.151Z,99.90
2023-06-29T18:27:23.221Z,99.90
2023-06-29T18:29:50.184Z,99.90
2023-06-29T18:32:18.773Z,99.90
2023-06-29T18:34:47.601Z,99.90
2023-06-29T18:37:15.024Z,99.90
2023-06-29T18:39:42.400Z,99.90
2023-06-29T18:42:09.259Z,99.90
2023-06-29T18:44:36.045Z,99.90
2023-06-29T18:47:14.848Z,99.90
2023-06-29T18:49:52.419Z,99.90
2023-06-29T18:52:20.634Z,99.90
2023-06-29T18:54:48.381Z,99.90
2023-06-29T18:57:15.495Z,99.90
2023-06-29T18:59:43.211Z,99.90
2023-06-29T19:02:10.664Z,99.90
2023-06-29T19:04:37.569Z,99.90
2023-06-29T19:07:04.689Z,99.90
2023-06-29T19:09:31.727Z,99.90
2023-06-29T19:12:02.251Z,99.90
2023-06-29T19:14:29.251Z,99.90
2023-06-29T19:16:59.329Z,99.90
2023-06-29T19:19:26.806Z,99.90
2023-06-29T19:21:54.046Z,99.90
2023-06-29T19:24:20.905Z,99.90
2023-06-29T19:26:48.249Z,99.90
2023-06-29T19:29:15.163Z,99.90
2023-06-29T19:31:44.741Z,99.90
2023-06-29T19:34:12.175Z,99.90
2023-06-29T19:36:39.669Z,99.90
2023-06-29T19:39:06.655Z,99.90
2023-06-29T19:41:33.651Z,99.90
2023-06-29T19:44:00.915Z,99.90
2023-06-29T19:46:27.856Z,99.90
2023-06-29T19:48:54.988Z,99.90
2023-06-29T19:51:22.020Z,99.90
2023-06-29T19:53:48.870Z,99.90
2023-06-29T19:56:16.143Z,99.90
2023-06-29T19:58:42.998Z,99.90
2023-06-29T20:01:09.756Z,99.90
2023-06-29T20:03:36.708Z,99.90
2023-06-29T20:06:04.125Z,99.90
2023-06-29T20:08:31.001Z,99.90
2023-06-29T20:10:57.851Z,99.90
2023-06-29T20:13:24.732Z,99.90
2023-06-29T20:15:51.732Z,99.90
2023-06-29T20:18:18.695Z,99.90
2023-06-29T20:20:45.533Z,99.90
2023-06-29T20:23:12.444Z,99.90
2023-06-29T20:25:39.383Z,99.90
2023-06-29T20:28:06.527Z,99.90
2023-06-29T20:30:33.462Z,99.90
2023-06-29T20:33:00.505Z,99.90
2023-06-29T20:35:27.781Z,99.90
2023-06-29T20:37:55.342Z,99.90
2023-06-29T20:40:22.089Z,99.90
2023-06-29T20:42:50.950Z,99.90
2023-06-29T20:45:17.865Z,99.90
2023-06-29T20:47:45.287Z,99.90
2023-06-29T20:50:12.225Z,99.90
2023-06-29T20:52:39.031Z,99.90
2023-06-29T20:55:06.572Z,99.90
2023-06-29T20:57:38.004Z,99.90
2023-06-29T21:00:07.998Z,99.90
2023-06-29T21:02:36.053Z,99.90
2023-06-29T21:05:03.484Z,99.90
2023-06-29T21:07:30.692Z,99.90
2023-06-29T21:09:57.599Z,99.90
2023-06-29T21:12:24.602Z,99.90
2023-06-29T21:14:51.527Z,99.90
2023-06-29T21:17:18.678Z,99.90
2023-06-29T21:19:45.744Z,99.90
2023-06-29T21:22:14.429Z,99.90
2023-06-29T21:24:43.122Z,99.90
2023-06-29T21:27:19.193Z,99.90
2023-06-29T21:29:47.896Z,99.90
2023-06-29T21:32:15.922Z,99.90
2023-06-29T21:34:43.201Z,99.90
2023-06-29T21:37:11.123Z,99.90
2023-06-29T21:39:38.023Z,99.90
2023-06-29T21:42:05.524Z,99.90
2023-06-29T21:44:32.504Z,99.90
2023-06-29T21:47:02.787Z,99.90
2023-06-29T21:49:30.039Z,99.90
2023-06-29T21:51:56.868Z,99.90
2023-06-29T21:54:23.674Z,99.90
2023-06-29T21:56:50.928Z,99.90
2023-06-29T21:59:18.355Z,99.90
2023-06-29T22:01:45.176Z,99.90
2023-06-29T22:04:12.181Z,99.90
2023-06-29T22:06:39.083Z,99.90
2023-06-29T22:09:05.843Z,99.90
2023-06-29T22:11:32.619Z,99.90
2023-06-29T22:13:59.531Z,99.90
2023-06-29T22:16:29.709Z,99.90
2023-06-29T22:18:56.927Z,99.90
2023-06-29T22:21:25.342Z,99.90
2023-06-29T22:23:54.313Z,99.90
2023-06-29T22:26:22.698Z,99.90
2023-06-29T22:28:50.137Z,99.90
2023-06-29T22:31:18.509Z,99.90
2023-06-29T22:33:46.660Z,99.90
2023-06-29T22:36:16.954Z,99.90
2023-06-29T22:38:43.933Z,99.90
2023-06-29T22:41:11.239Z,99.90
2023-06-29T22:43:38.768Z,99.90
2023-06-29T22:46:05.640Z,99.90
2023-06-29T22:48:32.584Z,99.90
2023-06-29T22:51:00.274Z,99.90
2023-06-29T22:53:27.486Z,99.90
2023-06-29T22:55:54.440Z,99.90
2023-06-29T22:58:25.998Z,99.90
2023-06-29T23:00:54.468Z,99.90
2023-06-29T23:03:23.022Z,99.90
2023-06-29T23:05:50.214Z,99.90
2023-06-29T23:08:17.960Z,99.90
2023-06-29T23:10:47.404Z,99.90
2023-06-29T23:13:17.011Z,99.90
2023-06-29T23:15:45.121Z,99.90
2023-06-29T23:18:12.794Z,99.90
2023-06-29T23:20:44.562Z,99.90
2023-06-29T23:23:13.773Z,99.90
2023-06-29T23:25:43.043Z,99.90
2023-06-29T23:28:10.181Z,99.90
2023-06-29T23:30:37.058Z,99.90
2023-06-29T23:33:04.108Z,99.90
2023-06-29T23:35:30.981Z,99.90
2023-06-29T23:37:57.809Z,99.90
2023-06-29T23:40:26.933Z,99.90
2023-06-29T23:42:54.634Z,99.90
2023-06-29T23:45:22.533Z,99.90
2023-06-29T23:47:50.514Z,99.90
2023-06-29T23:50:19.306Z,99.90
2023-06-29T23:52:46.364Z,99.90
2023-06-29T23:55:13.514Z,99.90
2023-06-29T23:57:41.296Z,99.90
